sensor_id;sensor_type;location;lat;lon;timestamp;P1;durP1;ratioP1;P2;durP2;ratioP2
67185;SDS011;54116;53.518;49.398;2022-12-10T00:01:46;4.30;;;1.50;;
67185;SDS011;54116;53.518;49.398;2022-12-10T00:04:13;1.80;;;0.82;;
67185;SDS011;54116;53.518;49.398;2022-12-10T00:06:40;4.85;;;1.35;;
67185;SDS011;54116;53.518;49.398;2022-12-10T00:09:09;10.95;;;1.90;;
67185;SDS011;54116;53.518;49.398;2022-12-10T00:11:37;4.43;;;1.55;;
67185;SDS011;54116;53.518;49.398;2022-12-10T00:14:04;5.05;;;1.77;;
67185;SDS011;54116;53.518;49.398;2022-12-10T00:16:32;3.80;;;1.48;;
67185;SDS011;54116;53.518;49.398;2022-12-10T00:18:59;4.18;;;1.95;;
67185;SDS011;54116;53.518;49.398;2022-12-10T00:21:27;7.40;;;1.80;;
67185;SDS011;54116;53.518;49.398;2022-12-10T00:23:55;5.30;;;1.63;;
67185;SDS011;54116;53.518;49.398;2022-12-10T00:28:50;6.05;;;1.45;;
67185;SDS011;54116;53.518;49.398;2022-12-10T00:31:21;8.73;;;1.25;;
67185;SDS011;54116;53.518;49.398;2022-12-10T00:33:53;7.25;;;2.00;;
67185;SDS011;54116;53.518;49.398;2022-12-10T00:36:21;8.45;;;2.78;;
67185;SDS011;54116;53.518;49.398;2022-12-10T00:38:49;8.48;;;2.40;;
67185;SDS011;54116;53.518;49.398;2022-12-10T00:43:43;8.38;;;2.65;;
67185;SDS011;54116;53.518;49.398;2022-12-10T00:46:09;8.38;;;2.45;;
67185;SDS011;54116;53.518;49.398;2022-12-10T00:48:36;7.30;;;2.08;;
67185;SDS011;54116;53.518;49.398;2022-12-10T00:51:04;10.05;;;2.60;;
67185;SDS011;54116;53.518;49.398;2022-12-10T00:53:33;9.18;;;3.13;;
67185;SDS011;54116;53.518;49.398;2022-12-10T00:56:00;10.43;;;2.72;;
67185;SDS011;54116;53.518;49.398;2022-12-10T00:58:27;12.00;;;3.47;;
67185;SDS011;54116;53.518;49.398;2022-12-10T01:00:54;10.30;;;3.28;;
67185;SDS011;54116;53.518;49.398;2022-12-10T01:03:31;12.30;;;3.90;;
67185;SDS011;54116;53.518;49.398;2022-12-10T01:05:57;11.77;;;2.88;;
67185;SDS011;54116;53.518;49.398;2022-12-10T01:08:32;8.18;;;2.50;;
67185;SDS011;54116;53.518;49.398;2022-12-10T01:10:58;9.10;;;3.15;;
67185;SDS011;54116;53.518;49.398;2022-12-10T01:13:24;15.43;;;3.85;;
67185;SDS011;54116;53.518;49.398;2022-12-10T01:15:50;11.88;;;3.30;;
67185;SDS011;54116;53.518;49.398;2022-12-10T01:18:16;14.82;;;3.70;;
67185;SDS011;54116;53.518;49.398;2022-12-10T01:20:42;16.33;;;4.45;;
67185;SDS011;54116;53.518;49.398;2022-12-10T01:23:08;17.23;;;3.75;;
67185;SDS011;54116;53.518;49.398;2022-12-10T01:25:34;13.38;;;4.07;;
67185;SDS011;54116;53.518;49.398;2022-12-10T01:28:00;13.95;;;4.15;;
67185;SDS011;54116;53.518;49.398;2022-12-10T01:30:26;15.70;;;4.28;;
67185;SDS011;54116;53.518;49.398;2022-12-10T01:32:52;15.82;;;3.80;;
67185;SDS011;54116;53.518;49.398;2022-12-10T01:35:18;13.38;;;4.55;;
67185;SDS011;54116;53.518;49.398;2022-12-10T01:37:45;9.88;;;3.55;;
67185;SDS011;54116;53.518;49.398;2022-12-10T01:40:11;10.15;;;3.58;;
67185;SDS011;54116;53.518;49.398;2022-12-10T01:42:37;9.05;;;3.33;;
67185;SDS011;54116;53.518;49.398;2022-12-10T01:45:05;12.75;;;3.95;;
67185;SDS011;54116;53.518;49.398;2022-12-10T01:47:34;12.55;;;4.50;;
67185;SDS011;54116;53.518;49.398;2022-12-10T01:50:00;16.35;;;4.82;;
67185;SDS011;54116;53.518;49.398;2022-12-10T01:52:27;12.60;;;4.25;;
67185;SDS011;54116;53.518;49.398;2022-12-10T01:54:54;15.25;;;4.47;;
67185;SDS011;54116;53.518;49.398;2022-12-10T01:57:21;18.95;;;4.88;;
67185;SDS011;54116;53.518;49.398;2022-12-10T01:59:51;12.88;;;3.72;;
67185;SDS011;54116;53.518;49.398;2022-12-10T02:02:41;14.40;;;5.20;;
67185;SDS011;54116;53.518;49.398;2022-12-10T02:13:25;13.27;;;4.57;;
67185;SDS011;54116;53.518;49.398;2022-12-10T02:18:39;16.45;;;4.65;;
67185;SDS011;54116;53.518;49.398;2022-12-10T02:21:36;17.60;;;5.28;;
67185;SDS011;54116;53.518;49.398;2022-12-10T02:24:08;15.57;;;4.57;;
67185;SDS011;54116;53.518;49.398;2022-12-10T02:26:43;16.55;;;5.35;;
67185;SDS011;54116;53.518;49.398;2022-12-10T02:29:17;14.73;;;4.10;;
67185;SDS011;54116;53.518;49.398;2022-12-10T02:31:46;16.17;;;4.45;;
67185;SDS011;54116;53.518;49.398;2022-12-10T02:34:23;14.65;;;4.07;;
67185;SDS011;54116;53.518;49.398;2022-12-10T02:36:52;16.50;;;5.28;;
67185;SDS011;54116;53.518;49.398;2022-12-10T02:39:21;15.88;;;4.68;;
67185;SDS011;54116;53.518;49.398;2022-12-10T02:41:52;12.95;;;4.50;;
67185;SDS011;54116;53.518;49.398;2022-12-10T02:44:20;15.05;;;4.75;;
67185;SDS011;54116;53.518;49.398;2022-12-10T02:46:51;13.25;;;3.95;;
67185;SDS011;54116;53.518;49.398;2022-12-10T02:49:18;11.73;;;3.50;;
67185;SDS011;54116;53.518;49.398;2022-12-10T02:51:45;10.00;;;2.97;;
67185;SDS011;54116;53.518;49.398;2022-12-10T02:57:18;9.77;;;3.20;;
67185;SDS011;54116;53.518;49.398;2022-12-10T03:05:36;10.43;;;3.28;;
67185;SDS011;54116;53.518;49.398;2022-12-10T03:13:38;8.52;;;3.25;;
67185;SDS011;54116;53.518;49.398;2022-12-10T03:16:11;9.35;;;2.30;;
67185;SDS011;54116;53.518;49.398;2022-12-10T03:18:38;5.75;;;2.05;;
67185;SDS011;54116;53.518;49.398;2022-12-10T03:21:05;9.50;;;2.47;;
67185;SDS011;54116;53.518;49.398;2022-12-10T03:23:35;9.10;;;2.65;;
67185;SDS011;54116;53.518;49.398;2022-12-10T03:26:03;9.55;;;2.28;;
67185;SDS011;54116;53.518;49.398;2022-12-10T03:30:58;8.18;;;2.35;;
67185;SDS011;54116;53.518;49.398;2022-12-10T03:33:24;8.82;;;2.25;;
67185;SDS011;54116;53.518;49.398;2022-12-10T03:35:50;8.05;;;2.15;;
67185;SDS011;54116;53.518;49.398;2022-12-10T03:38:17;7.47;;;2.67;;
67185;SDS011;54116;53.518;49.398;2022-12-10T03:40:43;6.20;;;2.50;;
67185;SDS011;54116;53.518;49.398;2022-12-10T03:43:12;5.97;;;2.28;;
67185;SDS011;54116;53.518;49.398;2022-12-10T03:45:39;6.72;;;2.30;;
67185;SDS011;54116;53.518;49.398;2022-12-10T03:48:06;5.43;;;2.13;;
67185;SDS011;54116;53.518;49.398;2022-12-10T03:50:32;8.48;;;2.35;;
67185;SDS011;54116;53.518;49.398;2022-12-10T03:52:58;6.00;;;2.40;;
67185;SDS011;54116;53.518;49.398;2022-12-10T03:55:24;11.27;;;2.47;;
67185;SDS011;54116;53.518;49.398;2022-12-10T03:57:51;7.65;;;1.88;;
67185;SDS011;54116;53.518;49.398;2022-12-10T04:00:17;10.77;;;2.20;;
67185;SDS011;54116;53.518;49.398;2022-12-10T04:02:43;8.02;;;2.97;;
67185;SDS011;54116;53.518;49.398;2022-12-10T04:05:09;10.95;;;2.65;;
67185;SDS011;54116;53.518;49.398;2022-12-10T04:07:35;7.75;;;1.92;;
67185;SDS011;54116;53.518;49.398;2022-12-10T04:10:02;4.68;;;1.50;;
67185;SDS011;54116;53.518;49.398;2022-12-10T04:14:54;3.63;;;1.42;;
67185;SDS011;54116;53.518;49.398;2022-12-10T04:17:39;8.75;;;2.30;;
67185;SDS011;54116;53.518;49.398;2022-12-10T04:20:05;6.70;;;1.85;;
67185;SDS011;54116;53.518;49.398;2022-12-10T04:22:51;4.13;;;1.98;;
67185;SDS011;54116;53.518;49.398;2022-12-10T04:25:35;6.35;;;1.58;;
67185;SDS011;54116;53.518;49.398;2022-12-10T04:28:24;6.53;;;1.85;;
67185;SDS011;54116;53.518;49.398;2022-12-10T04:30:51;6.60;;;1.70;;
67185;SDS011;54116;53.518;49.398;2022-12-10T04:33:17;6.65;;;1.75;;
67185;SDS011;54116;53.518;49.398;2022-12-10T04:35:43;6.13;;;1.63;;
67185;SDS011;54116;53.518;49.398;2022-12-10T04:38:09;4.53;;;1.63;;
67185;SDS011;54116;53.518;49.398;2022-12-10T04:40:35;5.35;;;1.80;;
67185;SDS011;54116;53.518;49.398;2022-12-10T04:43:01;7.45;;;1.65;;
67185;SDS011;54116;53.518;49.398;2022-12-10T04:45:27;6.18;;;2.10;;
67185;SDS011;54116;53.518;49.398;2022-12-10T04:47:53;4.03;;;1.60;;
67185;SDS011;54116;53.518;49.398;2022-12-10T04:50:19;13.27;;;2.20;;
67185;SDS011;54116;53.518;49.398;2022-12-10T04:52:45;5.63;;;1.67;;
67185;SDS011;54116;53.518;49.398;2022-12-10T04:55:12;8.27;;;1.40;;
67185;SDS011;54116;53.518;49.398;2022-12-10T04:57:38;6.93;;;2.28;;
67185;SDS011;54116;53.518;49.398;2022-12-10T05:00:04;4.30;;;1.15;;
67185;SDS011;54116;53.518;49.398;2022-12-10T05:02:30;7.03;;;2.00;;
67185;SDS011;54116;53.518;49.398;2022-12-10T05:04:56;8.48;;;1.92;;
67185;SDS011;54116;53.518;49.398;2022-12-10T05:07:23;7.00;;;2.00;;
67185;SDS011;54116;53.518;49.398;2022-12-10T05:09:49;4.60;;;1.75;;
67185;SDS011;54116;53.518;49.398;2022-12-10T05:12:15;4.47;;;1.30;;
67185;SDS011;54116;53.518;49.398;2022-12-10T05:14:41;6.32;;;1.65;;
67185;SDS011;54116;53.518;49.398;2022-12-10T05:17:07;5.78;;;1.80;;
67185;SDS011;54116;53.518;49.398;2022-12-10T05:19:33;3.55;;;1.27;;
67185;SDS011;54116;53.518;49.398;2022-12-10T05:21:59;4.07;;;1.40;;
67185;SDS011;54116;53.518;49.398;2022-12-10T05:24:44;4.40;;;1.42;;
67185;SDS011;54116;53.518;49.398;2022-12-10T05:27:10;5.32;;;1.40;;
67185;SDS011;54116;53.518;49.398;2022-12-10T05:29:36;5.53;;;1.23;;
67185;SDS011;54116;53.518;49.398;2022-12-10T05:32:02;6.47;;;1.52;;
67185;SDS011;54116;53.518;49.398;2022-12-10T05:34:29;4.13;;;1.20;;
67185;SDS011;54116;53.518;49.398;2022-12-10T05:36:56;5.32;;;2.67;;
67185;SDS011;54116;53.518;49.398;2022-12-10T05:39:22;7.90;;;0.90;;
67185;SDS011;54116;53.518;49.398;2022-12-10T05:41:48;7.22;;;1.17;;
67185;SDS011;54116;53.518;49.398;2022-12-10T05:44:14;2.15;;;0.85;;
67185;SDS011;54116;53.518;49.398;2022-12-10T05:46:40;3.67;;;1.42;;
67185;SDS011;54116;53.518;49.398;2022-12-10T05:49:07;4.63;;;1.20;;
67185;SDS011;54116;53.518;49.398;2022-12-10T05:51:34;2.20;;;0.93;;
67185;SDS011;54116;53.518;49.398;2022-12-10T05:54:01;3.58;;;1.08;;
67185;SDS011;54116;53.518;49.398;2022-12-10T05:56:29;2.75;;;0.90;;
67185;SDS011;54116;53.518;49.398;2022-12-10T05:58:57;5.50;;;1.00;;
67185;SDS011;54116;53.518;49.398;2022-12-10T06:01:26;2.53;;;0.70;;
67185;SDS011;54116;53.518;49.398;2022-12-10T06:03:54;8.40;;;1.73;;
67185;SDS011;54116;53.518;49.398;2022-12-10T06:06:23;5.95;;;1.02;;
67185;SDS011;54116;53.518;49.398;2022-12-10T06:08:51;2.00;;;0.50;;
67185;SDS011;54116;53.518;49.398;2022-12-10T06:11:18;3.55;;;1.15;;
67185;SDS011;54116;53.518;49.398;2022-12-10T06:13:44;3.22;;;1.00;;
67185;SDS011;54116;53.518;49.398;2022-12-10T06:16:11;3.38;;;0.80;;
67185;SDS011;54116;53.518;49.398;2022-12-10T06:18:39;3.17;;;1.15;;
67185;SDS011;54116;53.518;49.398;2022-12-10T06:21:06;3.13;;;1.02;;
67185;SDS011;54116;53.518;49.398;2022-12-10T06:23:34;3.13;;;0.98;;
67185;SDS011;54116;53.518;49.398;2022-12-10T06:26:04;3.90;;;1.48;;
67185;SDS011;54116;53.518;49.398;2022-12-10T06:28:35;1.13;;;0.50;;
67185;SDS011;54116;53.518;49.398;2022-12-10T06:33:28;2.22;;;0.63;;
67185;SDS011;54116;53.518;49.398;2022-12-10T06:35:54;2.20;;;0.70;;
67185;SDS011;54116;53.518;49.398;2022-12-10T06:38:20;2.30;;;0.80;;
67185;SDS011;54116;53.518;49.398;2022-12-10T06:40:46;3.67;;;0.80;;
67185;SDS011;54116;53.518;49.398;2022-12-10T06:43:12;4.30;;;0.90;;
67185;SDS011;54116;53.518;49.398;2022-12-10T06:45:39;2.10;;;0.70;;
67185;SDS011;54116;53.518;49.398;2022-12-10T06:48:05;2.63;;;1.15;;
67185;SDS011;54116;53.518;49.398;2022-12-10T06:50:32;2.70;;;0.93;;
67185;SDS011;54116;53.518;49.398;2022-12-10T06:52:58;3.60;;;0.70;;
67185;SDS011;54116;53.518;49.398;2022-12-10T06:55:24;2.35;;;0.77;;
67185;SDS011;54116;53.518;49.398;2022-12-10T06:57:51;1.98;;;0.70;;
67185;SDS011;54116;53.518;49.398;2022-12-10T07:00:18;3.65;;;0.93;;
67185;SDS011;54116;53.518;49.398;2022-12-10T07:05:10;1.98;;;0.70;;
67185;SDS011;54116;53.518;49.398;2022-12-10T07:07:36;2.85;;;1.02;;
67185;SDS011;54116;53.518;49.398;2022-12-10T07:10:03;3.42;;;0.88;;
67185;SDS011;54116;53.518;49.398;2022-12-10T07:12:29;2.00;;;0.43;;
67185;SDS011;54116;53.518;49.398;2022-12-10T07:14:55;3.13;;;1.10;;
67185;SDS011;54116;53.518;49.398;2022-12-10T07:17:22;6.22;;;0.85;;
67185;SDS011;54116;53.518;49.398;2022-12-10T07:19:48;3.92;;;1.10;;
67185;SDS011;54116;53.518;49.398;2022-12-10T07:22:14;8.98;;;1.05;;
67185;SDS011;54116;53.518;49.398;2022-12-10T07:24:40;4.68;;;1.35;;
67185;SDS011;54116;53.518;49.398;2022-12-10T07:27:07;2.47;;;0.77;;
67185;SDS011;54116;53.518;49.398;2022-12-10T07:29:33;2.60;;;0.77;;
67185;SDS011;54116;53.518;49.398;2022-12-10T07:31:59;4.10;;;0.98;;
67185;SDS011;54116;53.518;49.398;2022-12-10T07:34:26;6.07;;;1.45;;
67185;SDS011;54116;53.518;49.398;2022-12-10T07:36:52;5.32;;;2.13;;
67185;SDS011;54116;53.518;49.398;2022-12-10T07:39:18;2.17;;;0.88;;
67185;SDS011;54116;53.518;49.398;2022-12-10T07:41:48;1.73;;;0.57;;
67185;SDS011;54116;53.518;49.398;2022-12-10T07:44:18;2.42;;;0.82;;
67185;SDS011;54116;53.518;49.398;2022-12-10T07:46:47;7.55;;;0.80;;
67185;SDS011;54116;53.518;49.398;2022-12-10T07:49:14;3.38;;;0.90;;
67185;SDS011;54116;53.518;49.398;2022-12-10T07:51:48;4.05;;;0.98;;
67185;SDS011;54116;53.518;49.398;2022-12-10T07:54:15;2.95;;;0.82;;
67185;SDS011;54116;53.518;49.398;2022-12-10T07:56:42;2.28;;;0.63;;
67185;SDS011;54116;53.518;49.398;2022-12-10T07:59:08;3.83;;;1.20;;
67185;SDS011;54116;53.518;49.398;2022-12-10T08:01:34;5.97;;;1.33;;
67185;SDS011;54116;53.518;49.398;2022-12-10T08:04:00;4.35;;;0.82;;
67185;SDS011;54116;53.518;49.398;2022-12-10T08:06:27;3.47;;;0.85;;
67185;SDS011;54116;53.518;49.398;2022-12-10T08:08:54;2.30;;;0.82;;
67185;SDS011;54116;53.518;49.398;2022-12-10T08:11:21;4.97;;;0.90;;
67185;SDS011;54116;53.518;49.398;2022-12-10T08:13:48;4.03;;;0.80;;
67185;SDS011;54116;53.518;49.398;2022-12-10T08:16:16;4.05;;;1.00;;
67185;SDS011;54116;53.518;49.398;2022-12-10T08:18:44;3.40;;;0.50;;
67185;SDS011;54116;53.518;49.398;2022-12-10T08:21:17;3.80;;;1.02;;
67185;SDS011;54116;53.518;49.398;2022-12-10T08:23:45;7.13;;;1.02;;
67185;SDS011;54116;53.518;49.398;2022-12-10T08:26:13;2.55;;;0.98;;
67185;SDS011;54116;53.518;49.398;2022-12-10T08:28:41;3.15;;;1.20;;
67185;SDS011;54116;53.518;49.398;2022-12-10T08:31:08;5.00;;;1.15;;
67185;SDS011;54116;53.518;49.398;2022-12-10T08:33:36;2.65;;;0.73;;
67185;SDS011;54116;53.518;49.398;2022-12-10T08:36:04;3.13;;;1.20;;
67185;SDS011;54116;53.518;49.398;2022-12-10T08:38:31;4.18;;;0.93;;
67185;SDS011;54116;53.518;49.398;2022-12-10T08:40:57;4.68;;;1.02;;
67185;SDS011;54116;53.518;49.398;2022-12-10T08:43:24;2.47;;;0.90;;
67185;SDS011;54116;53.518;49.398;2022-12-10T08:45:50;5.38;;;1.92;;
67185;SDS011;54116;53.518;49.398;2022-12-10T08:48:16;4.68;;;2.05;;
67185;SDS011;54116;53.518;49.398;2022-12-10T08:50:42;4.72;;;1.20;;
67185;SDS011;54116;53.518;49.398;2022-12-10T08:53:10;11.52;;;1.08;;
67185;SDS011;54116;53.518;49.398;2022-12-10T08:55:39;6.03;;;2.08;;
67185;SDS011;54116;53.518;49.398;2022-12-10T08:58:05;3.65;;;1.13;;
67185;SDS011;54116;53.518;49.398;2022-12-10T09:00:32;3.75;;;1.23;;
67185;SDS011;54116;53.518;49.398;2022-12-10T09:02:58;2.83;;;1.00;;
67185;SDS011;54116;53.518;49.398;2022-12-10T09:05:25;4.55;;;1.10;;
67185;SDS011;54116;53.518;49.398;2022-12-10T09:07:51;1.90;;;0.85;;
67185;SDS011;54116;53.518;49.398;2022-12-10T09:10:17;4.80;;;2.08;;
67185;SDS011;54116;53.518;49.398;2022-12-10T09:12:44;3.42;;;1.38;;
67185;SDS011;54116;53.518;49.398;2022-12-10T09:15:10;5.20;;;1.90;;
67185;SDS011;54116;53.518;49.398;2022-12-10T09:17:36;3.13;;;0.90;;
67185;SDS011;54116;53.518;49.398;2022-12-10T09:20:04;3.72;;;1.35;;
67185;SDS011;54116;53.518;49.398;2022-12-10T09:22:31;3.80;;;0.70;;
67185;SDS011;54116;53.518;49.398;2022-12-10T09:24:57;3.67;;;0.80;;
67185;SDS011;54116;53.518;49.398;2022-12-10T09:27:23;2.22;;;0.90;;
67185;SDS011;54116;53.518;49.398;2022-12-10T09:29:49;4.03;;;1.00;;
67185;SDS011;54116;53.518;49.398;2022-12-10T09:32:17;4.90;;;1.73;;
67185;SDS011;54116;53.518;49.398;2022-12-10T09:34:43;6.15;;;1.08;;
67185;SDS011;54116;53.518;49.398;2022-12-10T09:37:09;3.63;;;1.10;;
67185;SDS011;54116;53.518;49.398;2022-12-10T09:39:35;2.58;;;0.73;;
67185;SDS011;54116;53.518;49.398;2022-12-10T09:45:41;1.90;;;0.70;;
67185;SDS011;54116;53.518;49.398;2022-12-10T09:47:46;10.48;;;1.02;;
67185;SDS011;54116;53.518;49.398;2022-12-10T09:50:26;2.45;;;0.73;;
67185;SDS011;54116;53.518;49.398;2022-12-10T09:53:02;4.30;;;0.63;;
67185;SDS011;54116;53.518;49.398;2022-12-10T09:55:37;2.70;;;0.70;;
67185;SDS011;54116;53.518;49.398;2022-12-10T09:58:09;10.00;;;1.13;;
67185;SDS011;54116;53.518;49.398;2022-12-10T10:00:54;3.97;;;1.33;;
67185;SDS011;54116;53.518;49.398;2022-12-10T10:03:26;13.10;;;1.88;;
67185;SDS011;54116;53.518;49.398;2022-12-10T10:05:56;2.40;;;0.70;;
67185;SDS011;54116;53.518;49.398;2022-12-10T10:08:36;6.07;;;1.10;;
67185;SDS011;54116;53.518;49.398;2022-12-10T10:11:17;2.40;;;0.60;;
67185;SDS011;54116;53.518;49.398;2022-12-10T10:13:53;3.30;;;0.70;;
67185;SDS011;54116;53.518;49.398;2022-12-10T10:21:37;5.72;;;1.00;;
67185;SDS011;54116;53.518;49.398;2022-12-10T10:24:05;4.72;;;0.80;;
67185;SDS011;54116;53.518;49.398;2022-12-10T10:26:32;11.40;;;2.30;;
67185;SDS011;54116;53.518;49.398;2022-12-10T10:29:00;8.57;;;1.20;;
67185;SDS011;54116;53.518;49.398;2022-12-10T10:31:28;3.63;;;0.80;;
67185;SDS011;54116;53.518;49.398;2022-12-10T10:33:58;11.63;;;1.40;;
67185;SDS011;54116;53.518;49.398;2022-12-10T10:36:34;4.35;;;0.98;;
67185;SDS011;54116;53.518;49.398;2022-12-10T10:39:10;2.47;;;0.68;;
67185;SDS011;54116;53.518;49.398;2022-12-10T10:41:53;2.80;;;1.30;;
67185;SDS011;54116;53.518;49.398;2022-12-10T10:44:22;7.22;;;1.20;;
67185;SDS011;54116;53.518;49.398;2022-12-10T10:46:51;5.80;;;1.75;;
67185;SDS011;54116;53.518;49.398;2022-12-10T10:49:29;1.73;;;0.60;;
67185;SDS011;54116;53.518;49.398;2022-12-10T10:52:06;7.18;;;1.38;;
67185;SDS011;54116;53.518;49.398;2022-12-10T10:54:40;4.45;;;1.00;;
67185;SDS011;54116;53.518;49.398;2022-12-10T10:57:12;7.93;;;1.20;;
67185;SDS011;54116;53.518;49.398;2022-12-10T10:59:49;5.88;;;0.90;;
67185;SDS011;54116;53.518;49.398;2022-12-10T11:05:04;3.25;;;0.60;;
67185;SDS011;54116;53.518;49.398;2022-12-10T11:07:41;8.55;;;1.52;;
67185;SDS011;54116;53.518;49.398;2022-12-10T11:10:18;4.18;;;1.10;;
67185;SDS011;54116;53.518;49.398;2022-12-10T11:12:55;6.18;;;1.05;;
67185;SDS011;54116;53.518;49.398;2022-12-10T11:21:06;4.18;;;1.10;;
67185;SDS011;54116;53.518;49.398;2022-12-10T11:42:13;2.50;;;0.77;;
67185;SDS011;54116;53.518;49.398;2022-12-10T11:45:07;5.55;;;1.10;;
67185;SDS011;54116;53.518;49.398;2022-12-10T12:09:59;2.13;;;0.82;;
67185;SDS011;54116;53.518;49.398;2022-12-10T12:12:37;1.95;;;0.80;;
67185;SDS011;54116;53.518;49.398;2022-12-10T12:18:04;8.32;;;1.50;;
67185;SDS011;54116;53.518;49.398;2022-12-10T12:20:37;3.42;;;0.68;;
67185;SDS011;54116;53.518;49.398;2022-12-10T12:26:39;4.57;;;1.13;;
67185;SDS011;54116;53.518;49.398;2022-12-10T12:29:51;7.85;;;0.82;;
67185;SDS011;54116;53.518;49.398;2022-12-10T12:37:38;2.95;;;1.08;;
67185;SDS011;54116;53.518;49.398;2022-12-10T12:40:28;6.30;;;1.73;;
67185;SDS011;54116;53.518;49.398;2022-12-10T12:45:47;2.40;;;0.90;;
67185;SDS011;54116;53.518;49.398;2022-12-10T12:48:25;2.83;;;1.10;;
67185;SDS011;54116;53.518;49.398;2022-12-10T12:51:13;9.57;;;1.20;;
67185;SDS011;54116;53.518;49.398;2022-12-10T12:53:39;5.60;;;1.30;;
67185;SDS011;54116;53.518;49.398;2022-12-10T12:56:32;6.38;;;1.23;;
67185;SDS011;54116;53.518;49.398;2022-12-10T12:59:01;2.95;;;1.00;;
67185;SDS011;54116;53.518;49.398;2022-12-10T13:01:54;4.53;;;0.93;;
67185;SDS011;54116;53.518;49.398;2022-12-10T13:04:24;4.00;;;1.25;;
67185;SDS011;54116;53.518;49.398;2022-12-10T13:07:26;5.82;;;1.23;;
67185;SDS011;54116;53.518;49.398;2022-12-10T13:12:32;2.55;;;1.13;;
67185;SDS011;54116;53.518;49.398;2022-12-10T13:18:01;3.45;;;1.05;;
67185;SDS011;54116;53.518;49.398;2022-12-10T13:23:31;3.65;;;1.35;;
67185;SDS011;54116;53.518;49.398;2022-12-10T13:26:25;4.70;;;1.15;;
67185;SDS011;54116;53.518;49.398;2022-12-10T13:28:53;2.42;;;0.85;;
67185;SDS011;54116;53.518;49.398;2022-12-10T13:31:22;5.30;;;1.20;;
67185;SDS011;54116;53.518;49.398;2022-12-10T13:36:29;4.82;;;0.88;;
67185;SDS011;54116;53.518;49.398;2022-12-10T13:41:33;2.55;;;0.93;;
67185;SDS011;54116;53.518;49.398;2022-12-10T13:49:48;2.67;;;0.73;;
67185;SDS011;54116;53.518;49.398;2022-12-10T13:52:32;4.95;;;0.77;;
67185;SDS011;54116;53.518;49.398;2022-12-10T14:03:59;3.90;;;1.13;;
67185;SDS011;54116;53.518;49.398;2022-12-10T14:06:34;1.85;;;0.47;;
67185;SDS011;54116;53.518;49.398;2022-12-10T14:09:21;4.00;;;0.70;;
67185;SDS011;54116;53.518;49.398;2022-12-10T14:12:01;2.15;;;0.60;;
67185;SDS011;54116;53.518;49.398;2022-12-10T14:14:37;3.97;;;0.93;;
67185;SDS011;54116;53.518;49.398;2022-12-10T14:17:18;7.55;;;0.90;;
67185;SDS011;54116;53.518;49.398;2022-12-10T14:19:47;2.05;;;0.60;;
67185;SDS011;54116;53.518;49.398;2022-12-10T14:22:17;3.60;;;0.93;;
67185;SDS011;54116;53.518;49.398;2022-12-10T14:24:46;1.45;;;0.60;;
67185;SDS011;54116;53.518;49.398;2022-12-10T14:27:16;3.00;;;0.90;;
67185;SDS011;54116;53.518;49.398;2022-12-10T14:29:48;3.47;;;1.13;;
67185;SDS011;54116;53.518;49.398;2022-12-10T14:32:25;1.67;;;0.60;;
67185;SDS011;54116;53.518;49.398;2022-12-10T14:37:25;4.65;;;1.52;;
67185;SDS011;54116;53.518;49.398;2022-12-10T14:39:53;3.58;;;1.10;;
67185;SDS011;54116;53.518;49.398;2022-12-10T14:42:20;1.50;;;0.93;;
67185;SDS011;54116;53.518;49.398;2022-12-10T14:44:48;3.55;;;0.90;;
67185;SDS011;54116;53.518;49.398;2022-12-10T14:47:24;3.00;;;1.10;;
67185;SDS011;54116;53.518;49.398;2022-12-10T14:49:53;5.40;;;1.42;;
67185;SDS011;54116;53.518;49.398;2022-12-10T14:52:21;4.47;;;0.65;;
67185;SDS011;54116;53.518;49.398;2022-12-10T14:54:49;4.30;;;1.13;;
67185;SDS011;54116;53.518;49.398;2022-12-10T14:57:26;4.45;;;0.90;;
67185;SDS011;54116;53.518;49.398;2022-12-10T15:02:42;2.20;;;0.60;;
67185;SDS011;54116;53.518;49.398;2022-12-10T15:10:19;4.80;;;1.00;;
67185;SDS011;54116;53.518;49.398;2022-12-10T15:12:50;5.25;;;1.65;;
67185;SDS011;54116;53.518;49.398;2022-12-10T15:15:26;3.67;;;1.02;;
67185;SDS011;54116;53.518;49.398;2022-12-10T15:23:34;3.75;;;0.88;;
67185;SDS011;54116;53.518;49.398;2022-12-10T15:26:04;2.42;;;0.63;;
67185;SDS011;54116;53.518;49.398;2022-12-10T15:28:38;3.22;;;0.90;;
67185;SDS011;54116;53.518;49.398;2022-12-10T15:33:52;6.47;;;1.52;;
67185;SDS011;54116;53.518;49.398;2022-12-10T15:36:30;4.63;;;1.02;;
67185;SDS011;54116;53.518;49.398;2022-12-10T15:39:04;1.60;;;1.00;;
67185;SDS011;54116;53.518;49.398;2022-12-10T15:41:45;1.90;;;0.60;;
67185;SDS011;54116;53.518;49.398;2022-12-10T15:44:32;4.20;;;1.33;;
67185;SDS011;54116;53.518;49.398;2022-12-10T15:49:45;5.05;;;1.08;;
67185;SDS011;54116;53.518;49.398;2022-12-10T15:52:17;8.73;;;1.13;;
67185;SDS011;54116;53.518;49.398;2022-12-10T15:54:49;4.53;;;1.02;;
67185;SDS011;54116;53.518;49.398;2022-12-10T15:57:20;4.05;;;1.27;;
67185;SDS011;54116;53.518;49.398;2022-12-10T16:02:25;3.38;;;0.82;;
67185;SDS011;54116;53.518;49.398;2022-12-10T16:05:13;3.70;;;0.82;;
67185;SDS011;54116;53.518;49.398;2022-12-10T16:07:41;3.45;;;0.88;;
67185;SDS011;54116;53.518;49.398;2022-12-10T16:10:09;3.03;;;1.08;;
67185;SDS011;54116;53.518;49.398;2022-12-10T16:12:37;2.50;;;0.77;;
67185;SDS011;54116;53.518;49.398;2022-12-10T16:15:04;4.40;;;1.10;;
67185;SDS011;54116;53.518;49.398;2022-12-10T16:17:32;3.08;;;0.80;;
67185;SDS011;54116;53.518;49.398;2022-12-10T16:19:59;4.25;;;0.95;;
67185;SDS011;54116;53.518;49.398;2022-12-10T16:22:26;6.68;;;0.82;;
67185;SDS011;54116;53.518;49.398;2022-12-10T16:24:52;3.22;;;0.60;;
67185;SDS011;54116;53.518;49.398;2022-12-10T16:27:18;2.42;;;0.75;;
67185;SDS011;54116;53.518;49.398;2022-12-10T16:29:45;4.43;;;0.85;;
67185;SDS011;54116;53.518;49.398;2022-12-10T16:32:11;9.00;;;1.20;;
67185;SDS011;54116;53.518;49.398;2022-12-10T16:37:04;5.05;;;0.88;;
67185;SDS011;54116;53.518;49.398;2022-12-10T16:39:31;5.28;;;0.95;;
67185;SDS011;54116;53.518;49.398;2022-12-10T16:41:57;1.73;;;0.50;;
67185;SDS011;54116;53.518;49.398;2022-12-10T16:44:23;1.25;;;0.40;;
67185;SDS011;54116;53.518;49.398;2022-12-10T16:46:50;7.13;;;1.10;;
67185;SDS011;54116;53.518;49.398;2022-12-10T16:51:42;3.33;;;0.82;;
67185;SDS011;54116;53.518;49.398;2022-12-10T16:54:09;2.25;;;0.47;;
67185;SDS011;54116;53.518;49.398;2022-12-10T16:56:36;0.80;;;0.40;;
67185;SDS011;54116;53.518;49.398;2022-12-10T16:59:03;3.58;;;0.90;;
67185;SDS011;54116;53.518;49.398;2022-12-10T17:01:29;1.10;;;0.47;;
67185;SDS011;54116;53.518;49.398;2022-12-10T17:03:59;3.47;;;0.70;;
67185;SDS011;54116;53.518;49.398;2022-12-10T17:06:25;2.85;;;0.73;;
67185;SDS011;54116;53.518;49.398;2022-12-10T17:08:52;5.13;;;0.60;;
67185;SDS011;54116;53.518;49.398;2022-12-10T17:11:19;3.13;;;0.57;;
67185;SDS011;54116;53.518;49.398;2022-12-10T17:14:13;2.85;;;0.68;;
67185;SDS011;54116;53.518;49.398;2022-12-10T17:16:45;0.93;;;0.43;;
67185;SDS011;54116;53.518;49.398;2022-12-10T17:19:12;1.92;;;0.50;;
67185;SDS011;54116;53.518;49.398;2022-12-10T17:21:44;1.08;;;0.40;;
67185;SDS011;54116;53.518;49.398;2022-12-10T17:24:15;1.95;;;0.80;;
67185;SDS011;54116;53.518;49.398;2022-12-10T17:26:47;1.42;;;0.57;;
67185;SDS011;54116;53.518;49.398;2022-12-10T17:29:20;1.80;;;0.47;;
67185;SDS011;54116;53.518;49.398;2022-12-10T17:31:55;2.30;;;0.40;;
67185;SDS011;54116;53.518;49.398;2022-12-10T17:34:27;3.72;;;0.50;;
67185;SDS011;54116;53.518;49.398;2022-12-10T17:37:00;3.05;;;1.15;;
67185;SDS011;54116;53.518;49.398;2022-12-10T17:39:31;1.73;;;0.90;;